Time;durP1;ratioP1;P1;durP2;ratioP2;P2;SDS_P1;SDS_P2;PMS_P1;PMS_P2;Temp;Humidity;BMP_temperature;BMP_pressure;BME280_temperature;BME280_humidity;BME280_pressure;Samples;Min_cycle;Max_cycle;Signal;HPM_P1;HPM_P2
2022/02/22 00:00:30;;;;;;;5.80;1.60;;;4.60;99.90;;;;;;4986497;28;20213;-78
2022/02/22 00:02:57;;;;;;;6.00;1.87;;;4.60;99.90;;;;;;5001425;28;20259;-78
2022/02/22 00:05:25;;;;;;;4.63;1.10;;;4.60;99.90;;;;;;5002481;28;20703;-78
2022/02/22 00:07:51;;;;;;;3.70;1.40;;;4.60;99.90;;;;;;5001860;28;20221;-79
2022/02/22 00:10:19;;;;;;;3.33;1.90;;;4.60;99.90;;;;;;5000701;28;20266;-78
2022/02/22 00:12:46;;;;;;;5.57;1.73;;;4.60;99.90;;;;;;4985742;28;20258;-78
2022/02/22 00:15:13;;;;;;;3.83;1.50;;;4.60;99.90;;;;;;5001903;28;20206;-78
2022/02/22 00:17:40;;;;;;;5.93;1.80;;;4.60;99.90;;;;;;5002456;28;20255;-80
2022/02/22 00:20:09;;;;;;;3.63;1.30;;;4.60;99.90;;;;;;5002087;28;20296;-79
2022/02/22 00:22:36;;;;;;;4.23;1.50;;;4.60;99.90;;;;;;5002180;28;20296;-79
2022/02/22 00:25:04;;;;;;;4.63;1.80;;;4.60;99.90;;;;;;5002243;28;20218;-75
2022/02/22 00:27:32;;;;;;;5.43;1.53;;;4.60;99.90;;;;;;5000238;28;20206;-76
2022/02/22 00:29:58;;;;;;;3.17;1.10;;;4.60;99.90;;;;;;5002324;28;20209;-75
2022/02/22 00:32:25;;;;;;;4.73;1.40;;;4.70;99.90;;;;;;4993320;28;20277;-77
2022/02/22 00:34:52;;;;;;;9.53;1.87;;;4.70;99.90;;;;;;5002072;28;20254;-78
2022/02/22 00:37:18;;;;;;;4.37;1.73;;;4.70;99.90;;;;;;4993702;28;20275;-78
2022/02/22 00:39:45;;;;;;;3.80;2.00;;;4.70;99.90;;;;;;4998473;28;20652;-80
2022/02/22 00:42:12;;;;;;;2.77;1.60;;;4.70;99.90;;;;;;5000297;28;20214;-80
2022/02/22 00:44:40;;;;;;;2.27;1.67;;;4.70;99.90;;;;;;4994103;28;20299;-82
2022/02/22 00:47:06;;;;;;;5.23;1.73;;;4.80;99.90;;;;;;4990995;28;20209;-82
2022/02/22 00:49:33;;;;;;;4.30;1.50;;;4.80;99.90;;;;;;5002523;28;20292;-82
2022/02/22 00:52:00;;;;;;;6.50;2.10;;;4.80;99.90;;;;;;5000349;28;20679;-81
2022/02/22 00:54:27;;;;;;;2.30;1.33;;;4.90;99.90;;;;;;4984589;28;20302;-82
2022/02/22 00:56:54;;;;;;;4.47;1.53;;;4.90;99.90;;;;;;4998965;28;20206;-76
2022/02/22 00:59:20;;;;;;;3.00;1.80;;;4.90;99.90;;;;;;5000869;28;20251;-77
2022/02/22 01:01:49;;;;;;;4.77;1.40;;;4.90;99.90;;;;;;5002108;28;20213;-78
2022/02/22 01:04:16;;;;;;;1.97;1.50;;;5.00;99.90;;;;;;5000263;28;20218;-76
2022/02/22 01:06:42;;;;;;;4.73;1.50;;;5.00;99.90;;;;;;5001677;28;20210;-79
2022/02/22 01:09:09;;;;;;;7.70;1.87;;;5.00;99.90;;;;;;4998449;28;20258;-82
2022/02/22 01:11:37;;;;;;;4.63;1.57;;;5.00;99.90;;;;;;4987882;28;20692;-82
2022/02/22 01:14:04;;;;;;;5.20;1.63;;;5.00;99.90;;;;;;5000657;28;20262;-80
2022/02/22 01:16:31;;;;;;;8.67;1.83;;;5.00;99.90;;;;;;4998981;28;20563;-83
2022/02/22 01:18:59;;;;;;;5.40;1.73;;;5.00;99.90;;;;;;4989053;28;20217;-78
2022/02/22 01:21:25;;;;;;;3.63;1.77;;;5.00;99.90;;;;;;4999990;28;20277;-79
2022/02/22 01:23:52;;;;;;;6.73;1.73;;;5.00;99.90;;;;;;5002230;28;20221;-79
2022/02/22 01:26:19;;;;;;;5.17;1.70;;;5.00;99.90;;;;;;5001628;28;20213;-78
2022/02/22 01:28:46;;;;;;;3.47;1.57;;;5.00;99.90;;;;;;5000034;28;20455;-79
2022/02/22 01:31:12;;;;;;;7.20;1.30;;;5.00;99.90;;;;;;4992490;28;20202;-78
2022/02/22 01:33:39;;;;;;;4.80;1.77;;;5.00;99.90;;;;;;4998960;28;20278;-81
2022/02/22 01:36:07;;;;;;;5.93;2.30;;;5.10;99.90;;;;;;4990595;28;20893;-81
2022/02/22 01:38:34;;;;;;;3.10;1.63;;;5.10;99.90;;;;;;4999257;28;20206;-72
2022/02/22 01:41:00;;;;;;;2.83;1.63;;;5.10;99.90;;;;;;5000340;28;20258;-72
2022/02/22 01:43:27;;;;;;;2.87;1.30;;;5.10;99.90;;;;;;5000681;28;20213;-74
2022/02/22 01:45:54;;;;;;;5.47;1.43;;;5.10;99.90;;;;;;4999585;28;20210;-72
2022/02/22 01:48:21;;;;;;;2.53;1.23;;;5.10;99.90;;;;;;5002292;28;20278;-75
2022/02/22 01:50:47;;;;;;;5.70;1.70;;;5.00;99.90;;;;;;4998773;28;20265;-80
2022/02/22 01:53:16;;;;;;;4.00;1.40;;;5.00;99.90;;;;;;5000085;28;20234;-79
2022/02/22 01:55:44;;;;;;;5.20;1.43;;;5.00;99.90;;;;;;5000052;28;20813;-79
2022/02/22 01:58:10;;;;;;;3.50;0.93;;;5.00;99.90;;;;;;4999599;28;20208;-79
2022/02/22 02:00:37;;;;;;;4.27;1.20;;;5.10;99.90;;;;;;5001461;28;20274;-78
2022/02/22 02:03:04;;;;;;;2.53;0.90;;;5.00;99.90;;;;;;4999140;28;20221;-80
2022/02/22 02:05:30;;;;;;;5.60;1.37;;;5.00;99.90;;;;;;5001973;28;20214;-78
2022/02/22 02:07:57;;;;;;;5.50;1.27;;;5.00;99.90;;;;;;5000720;28;20209;-78
2022/02/22 02:10:27;;;;;;;2.30;1.03;;;5.10;99.90;;;;;;5003678;28;20213;-81
2022/02/22 02:12:53;;;;;;;5.47;1.63;;;5.10;99.90;;;;;;5004981;28;20776;-81
2022/02/22 02:15:20;;;;;;;3.57;1.10;;;5.00;99.90;;;;;;5018276;28;20210;-79
2022/02/22 02:17:47;;;;;;;6.10;1.60;;;5.10;99.90;;;;;;5053980;28;20726;-80
2022/02/22 02:20:14;;;;;;;4.53;1.00;;;5.10;99.90;;;;;;5011374;28;20209;-79
2022/02/22 02:22:43;;;;;;;4.97;1.50;;;5.00;99.90;;;;;;5006177;28;20262;-78
2022/02/22 02:25:12;;;;;;;7.07;1.43;;;5.00;99.90;;;;;;5013753;28;20317;-79
2022/02/22 02:27:39;;;;;;;3.83;1.33;;;5.00;99.90;;;;;;5005447;28;20216;-79
2022/02/22 02:30:08;;;;;;;7.13;1.77;;;5.00;99.90;;;;;;5004870;28;20671;-79
2022/02/22 02:32:35;;;;;;;5.80;1.50;;;5.00;99.90;;;;;;5005776;28;20233;-79
2022/02/22 02:35:02;;;;;;;8.37;1.80;;;5.00;99.90;;;;;;5010022;28;20214;-80
2022/02/22 02:37:28;;;;;;;8.37;2.07;;;5.10;99.90;;;;;;5006785;28;20213;-79
2022/02/22 02:39:56;;;;;;;5.43;1.67;;;5.10;99.90;;;;;;5016800;28;20247;-83
2022/02/22 02:42:23;;;;;;;9.10;1.93;;;5.10;99.90;;;;;;5096653;28;20194;-82
2022/02/22 02:44:50;;;;;;;12.87;2.13;;;5.10;99.90;;;;;;5009858;28;20651;-82
2022/02/22 02:47:17;;;;;;;5.53;1.80;;;5.10;99.90;;;;;;5005170;28;20209;-79
2022/02/22 02:49:45;;;;;;;11.73;2.43;;;5.10;99.90;;;;;;5017299;28;20258;-79
2022/02/22 02:52:12;;;;;;;4.87;1.67;;;5.10;99.90;;;;;;5005196;28;20225;-79
2022/02/22 02:54:39;;;;;;;7.20;1.57;;;5.10;99.90;;;;;;5004272;28;20245;-80
2022/02/22 02:57:08;;;;;;;3.47;1.30;;;5.10;99.90;;;;;;5015426;28;20621;-79
2022/02/22 02:59:34;;;;;;;3.83;1.40;;;5.20;99.90;;;;;;5004832;28;20258;-78
2022/02/22 03:02:01;;;;;;;6.97;1.90;;;5.20;99.90;;;;;;5003635;28;20206;-79
2022/02/22 03:04:28;;;;;;;2.80;1.20;;;5.20;99.90;;;;;;5005616;28;20638;-80
2022/02/22 03:06:55;;;;;;;3.47;1.37;;;5.30;99.90;;;;;;5010839;28;20247;-79
2022/02/22 03:09:22;;;;;;;4.97;2.03;;;5.30;99.90;;;;;;5014161;28;20209;-78
2022/02/22 03:11:50;;;;;;;3.70;1.20;;;5.30;99.90;;;;;;5000692;28;20244;-78
2022/02/22 03:14:18;;;;;;;4.27;1.50;;;5.30;99.90;;;;;;5009093;28;20699;-77
2022/02/22 03:16:45;;;;;;;3.83;1.30;;;5.30;99.90;;;;;;5009046;28;20218;-78
2022/02/22 03:19:12;;;;;;;2.83;1.30;;;5.30;99.90;;;;;;5011055;28;20255;-76
2022/02/22 03:21:38;;;;;;;5.57;1.53;;;5.30;99.90;;;;;;5004680;28;20304;-80
2022/02/22 03:24:05;;;;;;;3.90;1.53;;;5.30;99.90;;;;;;4988028;28;20214;-79
2022/02/22 03:26:32;;;;;;;5.07;1.37;;;5.20;99.90;;;;;;5020822;28;20206;-79
2022/02/22 03:28:59;;;;;;;2.73;1.30;;;5.20;99.90;;;;;;5003192;28;20216;-81
2022/02/22 03:31:28;;;;;;;7.23;1.80;;;5.10;99.90;;;;;;5004915;28;20616;-80
2022/02/22 03:33:54;;;;;;;3.73;1.70;;;5.20;99.90;;;;;;5003896;28;20244;-79
2022/02/22 03:36:21;;;;;;;7.97;1.93;;;5.20;99.90;;;;;;5004795;28;20240;-79
2022/02/22 03:38:48;;;;;;;5.73;1.57;;;5.20;99.90;;;;;;5003634;28;20252;-80
2022/02/22 03:41:16;;;;;;;6.83;2.00;;;5.20;99.90;;;;;;5003765;28;20258;-81
2022/02/22 03:43:43;;;;;;;6.00;1.83;;;5.20;99.90;;;;;;5004885;28;20887;-77
2022/02/22 03:46:09;;;;;;;5.67;1.90;;;5.30;99.90;;;;;;5010324;28;20729;-77
2022/02/22 03:48:37;;;;;;;8.30;2.83;;;5.20;99.90;;;;;;5004143;28;20239;-77
2022/02/22 03:51:07;;;;;;;12.17;2.80;;;5.30;99.90;;;;;;5003894;28;20769;-78
2022/02/22 03:53:33;;;;;;;7.37;2.43;;;5.30;99.90;;;;;;5003995;28;20640;-81
2022/02/22 03:56:00;;;;;;;8.27;2.83;;;5.30;99.90;;;;;;5009747;28;20286;-76
2022/02/22 03:58:27;;;;;;;10.90;2.53;;;5.30;99.90;;;;;;5013882;28;20219;-77
2022/02/22 04:00:53;;;;;;;10.70;3.03;;;5.30;99.90;;;;;;5003440;28;20202;-78
2022/02/22 04:03:20;;;;;;;10.20;2.63;;;5.30;99.90;;;;;;5004684;28;20205;-74
2022/02/22 04:05:48;;;;;;;12.00;2.47;;;5.30;99.90;;;;;;5004234;28;20261;-78
2022/02/22 04:08:15;;;;;;;11.67;2.77;;;5.30;99.90;;;;;;5021288;28;20266;-77
2022/02/22 04:10:41;;;;;;;9.90;2.83;;;5.30;99.90;;;;;;5008893;28;20210;-76
2022/02/22 04:13:08;;;;;;;11.03;2.87;;;5.30;99.90;;;;;;4998514;28;20265;-76
2022/02/22 04:15:35;;;;;;;7.83;2.20;;;5.30;99.90;;;;;;4998099;28;20218;-79
2022/02/22 04:18:02;;;;;;;8.23;2.63;;;5.30;99.90;;;;;;5001183;28;20254;-78
2022/02/22 04:20:29;;;;;;;11.77;2.60;;;5.30;99.90;;;;;;4999280;28;20209;-76
2022/02/22 04:22:57;;;;;;;10.80;2.80;;;5.20;99.90;;;;;;5000210;28;20203;-76
2022/02/22 04:25:23;;;;;;;6.97;2.50;;;5.20;99.90;;;;;;5002569;28;20217;-76
2022/02/22 04:27:51;;;;;;;10.10;2.37;;;5.20;99.90;;;;;;4998717;28;20221;-76
2022/02/22 04:30:18;;;;;;;12.13;2.97;;;5.20;99.90;;;;;;4993973;28;20235;-77
2022/02/22 04:32:46;;;;;;;13.97;2.97;;;5.20;99.90;;;;;;4996768;28;20229;-77
2022/02/22 04:35:12;;;;;;;12.10;2.30;;;5.00;99.90;;;;;;5000638;28;20461;-77
2022/02/22 04:37:39;;;;;;;8.77;2.47;;;5.10;99.90;;;;;;5001117;28;20595;-77
2022/02/22 04:40:11;;;;;;;12.33;2.87;;;5.10;99.90;;;;;;5000171;28;20725;-76
2022/02/22 04:42:38;;;;;;;9.80;2.53;;;5.10;99.90;;;;;;5000093;28;20214;-76
2022/02/22 04:45:05;;;;;;;12.70;3.23;;;5.00;99.90;;;;;;4998283;28;20213;-78
2022/02/22 04:47:32;;;;;;;9.43;2.70;;;5.00;99.90;;;;;;5002047;28;20620;-79
2022/02/22 04:49:58;;;;;;;14.07;3.03;;;5.00;99.90;;;;;;4998504;28;20234;-78
2022/02/22 04:52:25;;;;;;;7.27;2.57;;;4.90;99.90;;;;;;4998386;28;20265;-78
2022/02/22 04:54:52;;;;;;;7.33;2.40;;;5.00;99.90;;;;;;5001411;28;20297;-78
2022/02/22 04:57:20;;;;;;;12.23;2.37;;;5.00;99.90;;;;;;4999662;28;20213;-78
2022/02/22 04:59:47;;;;;;;8.43;2.47;;;5.00;99.90;;;;;;4995055;28;20210;-78
2022/02/22 05:02:13;;;;;;;14.63;3.43;;;5.00;99.90;;;;;;5018410;28;20210;-77
2022/02/22 05:04:40;;;;;;;9.70;2.57;;;5.00;99.90;;;;;;5004556;28;20267;-77
2022/02/22 05:07:07;;;;;;;12.00;2.73;;;4.90;99.90;;;;;;5002600;28;20217;-76
2022/02/22 05:09:33;;;;;;;10.63;2.83;;;5.00;99.90;;;;;;5006005;28;20210;-76
2022/02/22 05:12:00;;;;;;;12.47;3.20;;;4.90;99.90;;;;;;4998145;28;20250;-76
2022/02/22 05:14:29;;;;;;;9.20;2.00;;;4.90;99.90;;;;;;5006153;28;20710;-76
2022/02/22 05:16:56;;;;;;;8.07;3.10;;;4.90;99.90;;;;;;4997807;28;20218;-76
2022/02/22 05:19:22;;;;;;;9.13;2.40;;;4.80;99.90;;;;;;5008404;28;20217;-77
2022/02/22 05:21:49;;;;;;;10.40;2.93;;;4.90;99.90;;;;;;5002162;28;20210;-76
2022/02/22 05:24:16;;;;;;;9.43;2.83;;;4.90;99.90;;;;;;5003413;28;20206;-76
2022/02/22 05:26:42;;;;;;;11.57;2.60;;;4.90;99.90;;;;;;5011240;28;20216;-76
2022/02/22 05:29:09;;;;;;;14.67;3.63;;;4.90;99.90;;;;;;4997350;28;20306;-76
2022/02/22 05:31:37;;;;;;;14.27;3.17;;;4.90;99.90;;;;;;5008802;28;20266;-76
2022/02/22 05:34:04;;;;;;;10.03;2.90;;;4.90;99.90;;;;;;5001336;28;20762;-77
2022/02/22 05:36:30;;;;;;;13.43;2.60;;;4.90;99.90;;;;;;5001408;28;20255;-76
2022/02/22 05:38:57;;;;;;;13.50;2.90;;;4.90;99.90;;;;;;5002621;28;20205;-75
2022/02/22 05:41:24;;;;;;;17.37;3.63;;;4.90;99.90;;;;;;4999168;28;20198;-76
2022/02/22 05:43:51;;;;;;;11.23;3.07;;;4.90;99.90;;;;;;5009168;28;20202;-76
2022/02/22 05:46:18;;;;;;;9.03;3.27;;;4.90;99.90;;;;;;5000141;28;20213;-76
2022/02/22 05:48:46;;;;;;;16.60;3.30;;;4.90;99.90;;;;;;5005207;28;20202;-76
2022/02/22 05:51:14;;;;;;;12.60;3.00;;;4.80;99.90;;;;;;5013289;28;20302;-76
2022/02/22 05:53:41;;;;;;;10.00;3.07;;;4.80;99.90;;;;;;5002163;28;20237;-75
2022/02/22 05:56:09;;;;;;;11.33;2.67;;;4.90;99.90;;;;;;5010447;28;20221;-76
2022/02/22 05:58:37;;;;;;;15.23;3.33;;;4.80;99.90;;;;;;5001614;28;21572;-76
2022/02/22 06:01:07;;;;;;;14.97;3.10;;;4.80;99.90;;;;;;5010881;28;20616;-76
2022/02/22 06:03:34;;;;;;;11.97;3.13;;;4.80;99.90;;;;;;5009585;28;20214;-76
2022/02/22 06:06:11;;;;;;;18.80;3.20;;;4.80;99.90;;;;;;5004909;28;20205;-77
2022/02/22 06:08:38;;;;;;;12.00;2.63;;;4.80;99.90;;;;;;5022440;28;20616;-76
2022/02/22 06:11:08;;;;;;;12.43;3.53;;;4.80;99.90;;;;;;5007454;28;20205;-76
2022/02/22 06:13:34;;;;;;;16.37;3.53;;;4.80;99.90;;;;;;5007481;28;20233;-76
2022/02/22 06:16:01;;;;;;;15.87;3.87;;;4.80;99.90;;;;;;5000001;28;20266;-75
2022/02/22 06:18:28;;;;;;;10.33;2.87;;;4.70;99.90;;;;;;5003362;28;20229;-76
2022/02/22 06:20:54;;;;;;;10.73;3.17;;;4.70;99.90;;;;;;5010673;28;20290;-75
2022/02/22 06:23:23;;;;;;;16.53;3.30;;;4.70;99.90;;;;;;5004688;28;20263;-75
2022/02/22 06:25:50;;;;;;;13.80;3.03;;;4.70;99.90;;;;;;5018446;28;20678;-75
2022/02/22 06:28:16;;;;;;;9.13;3.10;;;4.70;99.90;;;;;;5013641;28;20209;-75
2022/02/22 06:30:43;;;;;;;10.37;3.40;;;4.60;99.90;;;;;;5004383;28;20268;-75
2022/02/22 06:33:10;;;;;;;11.57;3.50;;;4.70;99.90;;;;;;5009392;28;20237;-75
2022/02/22 06:35:36;;;;;;;12.27;3.27;;;4.70;99.90;;;;;;5001558;28;20211;-75
2022/02/22 06:38:03;;;;;;;6.60;2.80;;;4.70;99.90;;;;;;5010613;28;20382;-75
2022/02/22 06:40:31;;;;;;;12.23;2.87;;;4.70;99.90;;;;;;5002053;28;20210;-76
2022/02/22 06:42:58;;;;;;;13.57;3.00;;;4.70;99.90;;;;;;5005820;28;20210;-76
2022/02/22 06:45:25;;;;;;;14.67;3.30;;;4.70;99.90;;;;;;5007421;28;20845;-76
2022/02/22 06:47:52;;;;;;;11.53;3.67;;;4.70;99.90;;;;;;5000420;28;20210;-75
2022/02/22 06:50:19;;;;;;;11.30;3.27;;;4.70;99.90;;;;;;5007224;28;20234;-76
2022/02/22 06:52:46;;;;;;;13.17;3.63;;;4.70;99.90;;;;;;5002747;28;20572;-75
2022/02/22 06:55:14;;;;;;;11.27;3.43;;;4.70;99.90;;;;;;5009415;28;20233;-76
2022/02/22 06:57:43;;;;;;;10.23;3.23;;;4.70;99.90;;;;;;5012718;28;20206;-75
2022/02/22 07:00:13;;;;;;;12.23;3.10;;;4.70;99.90;;;;;;5089725;28;20230;-75
2022/02/22 07:02:41;;;;;;;13.17;3.27;;;4.70;99.90;;;;;;5018992;28;20667;-76
2022/02/22 07:05:09;;;;;;;11.10;3.20;;;4.60;99.90;;;;;;5006431;28;20221;-75
2022/02/22 07:07:37;;;;;;;11.23;2.70;;;4.60;99.90;;;;;;5003506;28;20878;-76
2022/02/22 07:10:04;;;;;;;12.93;2.97;;;4.60;99.90;;;;;;5010525;28;20263;-76
2022/02/22 07:12:31;;;;;;;11.97;3.10;;;4.60;99.90;;;;;;5006641;28;20210;-75
2022/02/22 07:14:58;;;;;;;17.10;3.47;;;4.60;99.90;;;;;;5009494;28;20233;-76
2022/02/22 07:17:26;;;;;;;8.40;2.83;;;4.60;99.90;;;;;;5006773;28;20220;-76
2022/02/22 07:19:54;;;;;;;12.40;2.87;;;4.50;99.90;;;;;;5004623;28;20226;-75
2022/02/22 07:22:22;;;;;;;8.60;2.70;;;4.50;99.90;;;;;;5006215;28;20292;-76
2022/02/22 07:24:48;;;;;;;14.83;3.67;;;4.50;99.90;;;;;;5005244;28;20620;-75
2022/02/22 07:27:15;;;;;;;14.10;2.97;;;4.60;99.90;;;;;;5010918;28;20263;-75
2022/02/22 07:29:42;;;;;;;14.10;3.07;;;4.60;99.90;;;;;;5006150;28;20263;-75
2022/02/22 07:32:09;;;;;;;13.40;2.97;;;4.50;99.90;;;;;;5011768;28;20571;-76
2022/02/22 07:34:38;;;;;;;11.13;3.27;;;4.50;99.90;;;;;;5005840;28;20236;-76
2022/02/22 07:37:05;;;;;;;7.63;2.90;;;4.50;99.90;;;;;;5009743;28;20736;-75
2022/02/22 07:39:31;;;;;;;8.83;2.80;;;4.50;99.90;;;;;;5004740;28;20298;-75
2022/02/22 07:41:58;;;;;;;9.27;2.50;;;4.50;99.90;;;;;;5007743;28;20341;-75
2022/02/22 07:44:26;;;;;;;12.67;2.80;;;4.60;99.90;;;;;;5010779;28;20267;-76
2022/02/22 07:46:52;;;;;;;10.53;2.73;;;4.60;99.90;;;;;;5018608;28;20214;-76
2022/02/22 07:49:19;;;;;;;10.63;3.60;;;4.60;99.90;;;;;;5009196;28;20947;-75
2022/02/22 07:51:47;;;;;;;9.37;2.43;;;4.70;99.90;;;;;;4999547;28;20571;-75
2022/02/22 07:54:13;;;;;;;10.97;2.77;;;4.70;99.90;;;;;;5000824;28;20295;-75
2022/02/22 07:56:41;;;;;;;9.80;3.20;;;4.80;99.90;;;;;;5012658;28;20294;-75
2022/02/22 07:59:08;;;;;;;8.93;3.17;;;4.80;99.90;;;;;;4995577;28;20309;-75
2022/02/22 08:01:34;;;;;;;12.03;3.03;;;4.90;99.90;;;;;;5007143;28;20214;-75
2022/02/22 08:04:01;;;;;;;9.77;3.33;;;4.90;99.90;;;;;;4998155;28;20237;-75
2022/02/22 08:06:28;;;;;;;16.00;4.00;;;5.00;99.90;;;;;;5009914;28;20671;-75
2022/02/22 08:08:56;;;;;;;11.27;3.50;;;5.00;99.90;;;;;;5004577;28;20262;-75
2022/02/22 08:11:23;;;;;;;9.77;3.37;;;4.90;99.90;;;;;;5009128;28;20212;-75
2022/02/22 08:13:51;;;;;;;13.10;3.43;;;5.00;99.90;;;;;;5009809;28;20787;-75
2022/02/22 08:16:18;;;;;;;9.30;2.60;;;4.90;99.90;;;;;;5002882;28;20305;-76
2022/02/22 08:18:44;;;;;;;8.73;2.60;;;4.90;99.90;;;;;;5011045;28;20246;-76
2022/02/22 08:21:11;;;;;;;8.63;2.47;;;4.90;99.90;;;;;;5010938;28;20255;-76
2022/02/22 08:23:37;;;;;;;8.27;2.27;;;4.90;99.90;;;;;;4994436;28;20215;-75
2022/02/22 08:26:08;;;;;;;7.50;2.37;;;4.90;99.90;;;;;;5013929;28;20213;-76
2022/02/22 08:28:35;;;;;;;9.40;2.17;;;4.90;99.90;;;;;;5005096;28;20976;-76
2022/02/22 08:31:05;;;;;;;9.43;2.40;;;5.00;99.90;;;;;;5016223;28;20585;-75
2022/02/22 08:33:32;;;;;;;8.53;2.20;;;4.90;99.90;;;;;;5000062;28;20699;-76
2022/02/22 08:35:58;;;;;;;6.27;1.77;;;4.90;99.90;;;;;;5013075;28;20262;-75
2022/02/22 08:38:25;;;;;;;3.93;1.57;;;5.00;99.90;;;;;;5021118;28;20206;-76
2022/02/22 08:40:52;;;;;;;8.33;2.00;;;5.00;99.90;;;;;;5002516;28;20210;-76
2022/02/22 08:43:20;;;;;;;9.17;2.47;;;5.10;99.90;;;;;;5003687;28;20586;-76
2022/02/22 08:45:47;;;;;;;3.40;1.30;;;5.00;99.90;;;;;;4999346;28;20206;-76
2022/02/22 08:48:14;;;;;;;6.20;1.77;;;5.10;99.90;;;;;;4999208;28;20259;-76
2022/02/22 08:50:42;;;;;;;4.73;1.77;;;5.30;99.90;;;;;;5021821;28;20229;-76
2022/02/22 08:53:09;;;;;;;3.40;1.27;;;5.40;99.90;;;;;;4997557;28;20206;-76
2022/02/22 08:55:36;;;;;;;4.57;1.30;;;5.50;99.90;;;;;;5008004;28;20264;-76
2022/02/22 08:58:03;;;;;;;6.13;1.47;;;5.50;99.90;;;;;;5008142;28;20274;-76
2022/02/22 09:00:32;;;;;;;5.23;1.47;;;5.50;99.90;;;;;;4997511;28;20251;-76
2022/02/22 09:03:00;;;;;;;4.80;1.30;;;5.40;99.90;;;;;;5004193;28;20212;-76
2022/02/22 09:05:27;;;;;;;3.73;1.47;;;5.50;99.90;;;;;;5000993;28;20248;-76
2022/02/22 09:07:55;;;;;;;4.70;1.30;;;5.60;99.90;;;;;;5001671;28;20210;-76
2022/02/22 09:10:22;;;;;;;3.03;1.57;;;5.60;99.90;;;;;;5003793;28;20237;-76
2022/02/22 09:12:49;;;;;;;4.90;1.10;;;5.70;99.90;;;;;;5000410;28;20205;-76
2022/02/22 09:15:20;;;;;;;4.73;1.50;;;5.70;99.90;;;;;;5009082;28;20262;-76
2022/02/22 09:17:49;;;;;;;2.93;1.63;;;5.70;99.90;;;;;;5001737;28;20210;-76
2022/02/22 09:20:18;;;;;;;3.37;1.67;;;5.50;99.90;;;;;;5009367;28;20270;-75
2022/02/22 09:22:45;;;;;;;5.63;1.93;;;5.50;99.90;;;;;;5003376;28;20213;-75
2022/02/22 09:25:14;;;;;;;4.97;1.93;;;5.70;99.90;;;;;;5015894;28;20214;-76
2022/02/22 09:27:42;;;;;;;5.30;2.07;;;5.60;99.90;;;;;;5010195;28;20667;-75
2022/02/22 09:30:10;;;;;;;6.57;2.37;;;5.60;99.90;;;;;;5018743;28;20215;-76
2022/02/22 09:32:38;;;;;;;8.70;2.27;;;5.80;99.90;;;;;;5004745;28;20206;-76
2022/02/22 09:35:07;;;;;;;5.53;2.00;;;5.90;99.90;;;;;;5003492;28;20237;-76
2022/02/22 09:37:34;;;;;;;8.43;2.33;;;6.00;99.90;;;;;;5010526;28;20205;-75
2022/02/22 09:40:01;;;;;;;5.00;2.03;;;6.10;99.90;;;;;;5013301;28;20209;-76
2022/02/22 09:42:28;;;;;;;7.90;2.30;;;6.20;99.90;;;;;;5008193;28;20612;-77
2022/02/22 09:44:55;;;;;;;10.83;2.43;;;6.30;99.90;;;;;;5008695;28;20739;-76
2022/02/22 09:47:22;;;;;;;8.00;2.67;;;6.40;99.90;;;;;;5008479;28;20213;-76
2022/02/22 09:49:49;;;;;;;6.73;2.13;;;6.30;99.90;;;;;;5010761;28;20236;-76
2022/02/22 09:52:17;;;;;;;7.07;2.67;;;6.20;99.90;;;;;;5020409;28;20737;-77
2022/02/22 09:54:44;;;;;;;7.17;2.40;;;6.20;99.90;;;;;;4994590;28;20282;-77
2022/02/22 09:57:10;;;;;;;9.13;2.50;;;6.30;99.90;;;;;;5005058;28;20248;-78
2022/02/22 09:59:38;;;;;;;9.33;3.00;;;6.50;99.90;;;;;;4999231;28;20736;-75
2022/02/22 10:02:05;;;;;;;10.27;2.77;;;6.40;99.90;;;;;;5012484;28;20376;-75
2022/02/22 10:04:41;;;;;;;8.13;2.50;;;6.30;99.90;;;;;;4996323;28;20398;-75
2022/02/22 10:07:08;;;;;;;9.87;2.73;;;6.30;99.90;;;;;;4998257;28;20209;-77
2022/02/22 10:09:40;;;;;;;10.87;2.80;;;6.30;99.90;;;;;;5011714;28;20224;-78
2022/02/22 10:12:08;;;;;;;8.47;2.17;;;6.40;99.90;;;;;;5020275;28;20214;-76
2022/02/22 10:14:38;;;;;;;9.97;2.73;;;6.30;99.90;;;;;;5001934;28;20230;-75
2022/02/22 10:17:05;;;;;;;12.50;2.67;;;6.30;99.90;;;;;;5009692;28;20261;-76
2022/02/22 10:19:34;;;;;;;8.93;2.53;;;6.30;99.90;;;;;;5001799;28;20741;-75
2022/02/22 10:22:02;;;;;;;18.37;3.17;;;6.30;99.90;;;;;;5075974;28;20210;-75
2022/02/22 10:24:30;;;;;;;9.50;2.53;;;6.30;99.90;;;;;;5007023;28;20205;-75
2022/02/22 10:27:03;;;;;;;8.00;2.70;;;6.30;99.90;;;;;;5004127;28;20214;-74
2022/02/22 10:29:32;;;;;;;8.10;2.23;;;6.40;99.90;;;;;;5010112;28;20210;-75
2022/02/22 10:31:58;;;;;;;9.40;2.67;;;6.40;99.90;;;;;;5011544;28;20209;-75
2022/02/22 10:34:31;;;;;;;9.40;2.33;;;6.40;99.90;;;;;;5002714;28;20229;-75
2022/02/22 10:36:58;;;;;;;6.90;2.57;;;6.50;99.90;;;;;;5015438;28;20244;-75
2022/02/22 10:39:25;;;;;;;8.60;2.30;;;6.70;99.90;;;;;;4999465;28;20291;-75
2022/02/22 10:41:54;;;;;;;9.40;2.10;;;6.90;99.90;;;;;;5013152;28;20258;-75
2022/02/22 10:44:29;;;;;;;4.80;2.03;;;7.10;99.90;;;;;;5003330;28;20214;-74
2022/02/22 10:46:56;;;;;;;7.97;2.63;;;7.20;99.90;;;;;;5036806;28;20205;-75
2022/02/22 10:49:25;;;;;;;7.40;2.10;;;7.20;99.90;;;;;;5014076;28;20236;-74
2022/02/22 10:51:52;;;;;;;6.07;1.80;;;6.90;99.90;;;;;;4998830;28;20209;-75
2022/02/22 10:54:21;;;;;;;6.37;2.20;;;6.70;99.90;;;;;;5015200;28;20840;-75
2022/02/22 10:56:49;;;;;;;6.20;2.10;;;6.80;99.90;;;;;;5004043;28;20245;-75
2022/02/22 10:59:17;;;;;;;5.40;2.50;;;6.90;99.90;;;;;;5002502;28;20621;-75
2022/02/22 11:01:45;;;;;;;6.13;2.50;;;7.10;99.90;;;;;;5009458;28;20205;-75
2022/02/22 11:04:12;;;;;;;5.97;2.23;;;7.20;99.90;;;;;;5001259;28;20218;-75
2022/02/22 11:06:39;;;;;;;6.53;2.83;;;7.10;99.90;;;;;;5002322;28;20233;-74
2022/02/22 11:09:07;;;;;;;6.33;2.03;;;7.10;99.90;;;;;;5001380;28;20224;-74
2022/02/22 11:11:39;;;;;;;8.47;2.37;;;7.00;99.90;;;;;;5005453;28;20210;-75
2022/02/22 11:14:08;;;;;;;5.73;1.73;;;7.10;99.90;;;;;;5009595;28;20210;-75
2022/02/22 11:16:47;;;;;;;9.93;2.70;;;7.10;99.90;;;;;;5002043;28;20294;-75
2022/02/22 11:19:19;;;;;;;4.73;2.07;;;7.20;99.90;;;;;;5007382;28;20778;-75
2022/02/22 11:21:48;;;;;;;6.77;2.13;;;7.30;99.90;;;;;;5000702;28;20761;-75
2022/02/22 11:24:18;;;;;;;9.50;2.40;;;7.50;99.90;;;;;;4995543;28;20406;-77
2022/02/22 11:26:48;;;;;;;9.23;2.13;;;7.50;99.90;;;;;;5000447;28;20201;-75
2022/02/22 11:29:15;;;;;;;4.40;2.20;;;7.40;99.90;;;;;;4995871;28;20413;-75
2022/02/22 11:31:43;;;;;;;4.40;2.13;;;7.60;99.90;;;;;;4998780;28;20675;-75
2022/02/22 11:34:10;;;;;;;8.10;2.27;;;7.70;99.90;;;;;;4997725;28;20210;-75
2022/02/22 11:36:39;;;;;;;7.27;2.47;;;7.80;99.90;;;;;;4995697;28;21270;-75
2022/02/22 11:39:07;;;;;;;9.43;2.37;;;7.70;99.90;;;;;;4999792;28;21010;-75
2022/02/22 11:41:41;;;;;;;12.63;2.57;;;7.60;99.90;;;;;;4996231;28;20205;-74
2022/02/22 11:44:15;;;;;;;6.43;2.47;;;7.60;99.90;;;;;;4995393;28;20339;-75
2022/02/22 11:46:44;;;;;;;10.70;2.43;;;7.90;99.90;;;;;;4998469;28;20213;-75
2022/02/22 11:49:21;;;;;;;8.83;2.40;;;8.00;99.90;;;;;;4999198;28;20232;-74
2022/02/22 11:51:52;;;;;;;8.27;2.57;;;8.00;99.90;;;;;;4997369;28;20227;-75
2022/02/22 11:54:21;;;;;;;7.83;2.33;;;7.60;99.90;;;;;;4998980;28;20241;-75
2022/02/22 11:56:48;;;;;;;8.47;2.40;;;7.70;99.90;;;;;;4994645;28;20266;-74
2022/02/22 11:59:17;;;;;;;6.97;2.63;;;7.90;99.90;;;;;;4999325;28;20206;-75
2022/02/22 12:01:45;;;;;;;11.17;2.70;;;8.10;99.90;;;;;;4999126;28;20217;-75
2022/02/22 12:04:25;;;;;;;7.43;2.10;;;8.00;99.90;;;;;;4998432;28;20249;-75
2022/02/22 12:06:56;;;;;;;9.60;2.53;;;7.90;99.90;;;;;;4998671;28;20217;-75
2022/02/22 12:09:34;;;;;;;7.90;2.47;;;7.70;99.90;;;;;;4995144;28;20225;-75
2022/02/22 12:12:05;;;;;;;6.30;2.50;;;7.80;99.90;;;;;;4998446;28;20224;-75
2022/02/22 12:14:32;;;;;;;10.53;2.73;;;8.00;99.90;;;;;;4999828;28;20217;-75
2022/02/22 12:16:59;;;;;;;9.87;2.37;;;8.20;99.90;;;;;;4996188;27;20663;-75
2022/02/22 12:19:27;;;;;;;10.07;2.50;;;8.30;99.90;;;;;;5000204;28;20221;-75
2022/02/22 12:21:55;;;;;;;8.50;2.20;;;8.50;99.90;;;;;;4995417;28;20233;-75
2022/02/22 12:24:23;;;;;;;8.50;2.40;;;8.60;99.90;;;;;;4998787;28;20202;-75
2022/02/22 12:26:50;;;;;;;8.37;2.40;;;8.60;99.90;;;;;;4996899;28;20213;-75
2022/02/22 12:29:17;;;;;;;10.60;2.43;;;8.60;99.90;;;;;;4996299;28;20259;-75
2022/02/22 12:31:45;;;;;;;6.40;2.60;;;8.60;99.90;;;;;;4997838;28;20218;-78
2022/02/22 12:34:13;;;;;;;10.90;2.77;;;8.70;99.90;;;;;;4994979;28;20228;-78
2022/02/22 12:36:43;;;;;;;8.07;2.60;;;8.50;99.90;;;;;;4999861;28;20642;-78
2022/02/22 12:39:12;;;;;;;7.33;2.53;;;8.30;99.90;;;;;;4994684;28;20210;-77
2022/02/22 12:41:40;;;;;;;9.33;2.90;;;7.90;99.90;;;;;;4996397;28;20202;-78
2022/02/22 12:44:09;;;;;;;9.87;2.40;;;7.70;99.90;;;;;;4999463;28;20237;-77
2022/02/22 12:46:38;;;;;;;9.57;2.43;;;7.70;99.90;;;;;;4995328;28;20668;-78
2022/02/22 12:49:05;;;;;;;8.87;2.60;;;7.60;99.90;;;;;;4997316;28;20262;-77
2022/02/22 12:51:32;;;;;;;9.97;2.40;;;7.50;99.90;;;;;;4994977;28;20295;-75
2022/02/22 12:54:03;;;;;;;7.33;2.53;;;7.50;99.90;;;;;;4996035;28;20660;-74